Time;durP1;ratioP1;P1;durP2;ratioP2;P2;SDS_P1;SDS_P2;PMS_P1;PMS_P2;Temp;Humidity;BMP_temperature;BMP_pressure;BME280_temperature;BME280_humidity;BME280_pressure;Samples;Min_cycle;Max_cycle;Signal;HPM_P1;HPM_P2
2022/07/09 00:01:03;;;;;;;0.08;0.08;;;19.20;78.90;;;20.94;65.40;102758.59;2014826;29;20414;-60
2022/07/09 00:02:07;;;;;;;0.10;0.10;;;19.20;78.90;;;20.94;65.34;102758.59;2014909;29;20513;-60
2022/07/09 00:03:09;;;;;;;0.10;0.10;;;19.20;78.90;;;20.94;65.38;102755.84;2021705;29;20139;-60
2022/07/09 00:04:13;;;;;;;0.13;0.13;;;19.10;78.80;;;20.95;65.13;102754.69;2020855;29;20052;-60
2022/07/09 00:05:17;;;;;;;0.10;0.10;;;19.20;78.90;;;20.96;65.13;102759.06;2015444;29;20494;-61
2022/07/09 00:06:22;;;;;;;0.10;0.10;;;19.20;79.00;;;20.95;65.33;102757.44;2016060;29;20527;-60
2022/07/09 00:07:26;;;;;;;0.10;0.10;;;19.10;79.00;;;20.94;65.44;102747.59;2014611;29;20049;-60
2022/07/09 00:08:31;;;;;;;0.10;0.10;;;19.10;79.10;;;20.98;65.36;102758.69;2013779;29;20056;-60
2022/07/09 00:09:34;;;;;;;0.10;0.10;;;19.20;79.20;;;21.00;65.48;102761.84;2014693;29;20600;-60
2022/07/09 00:10:38;;;;;;;0.10;0.10;;;19.20;79.10;;;21.02;65.40;102762.28;2008454;29;20060;-60
2022/07/09 00:11:41;;;;;;;0.13;0.13;;;19.20;79.10;;;21.03;65.14;102755.63;2015154;29;20057;-61
2022/07/09 00:12:44;;;;;;;0.15;0.15;;;19.20;79.00;;;21.02;65.35;102754.84;2014945;29;20065;-61
2022/07/09 00:13:47;;;;;;;0.17;0.17;;;19.20;79.00;;;21.05;65.35;102761.56;2014838;29;20128;-61
2022/07/09 00:14:51;;;;;;;0.10;0.10;;;19.20;78.90;;;21.03;65.07;102756.44;2015586;29;20481;-61
2022/07/09 00:15:53;;;;;;;0.08;0.08;;;19.20;78.90;;;21.02;65.51;102754.84;2014999;29;20091;-61
2022/07/09 00:16:57;;;;;;;0.10;0.10;;;19.20;79.00;;;21.00;65.43;102756.34;2015970;29;20536;-61
2022/07/09 00:17:59;;;;;;;0.10;0.10;;;19.20;78.90;;;20.98;65.48;102759.47;2014578;29;20112;-61
2022/07/09 00:19:03;;;;;;;0.10;0.10;;;19.20;79.00;;;20.98;65.57;102758.69;2015479;29;20060;-61
2022/07/09 00:20:07;;;;;;;0.20;0.20;;;19.20;79.10;;;20.95;65.26;102754.69;2013709;29;20056;-61
2022/07/09 00:21:12;;;;;;;0.10;0.10;;;19.20;79.20;;;20.96;65.73;102745.34;2014946;29;20576;-61
2022/07/09 00:22:14;;;;;;;0.20;0.20;;;19.10;79.20;;;20.89;65.44;102750.66;2015110;29;20569;-61
2022/07/09 00:23:18;;;;;;;0.10;0.10;;;19.10;79.20;;;20.93;65.97;102757.00;2014872;29;20132;-61
2022/07/09 00:24:20;;;;;;;0.10;0.10;;;19.10;79.40;;;20.94;65.75;102755.03;2015264;29;20092;-61
2022/07/09 00:25:24;;;;;;;0.10;0.10;;;19.10;79.50;;;20.94;65.88;102752.28;2015413;29;20057;-61
2022/07/09 00:26:26;;;;;;;0.10;0.10;;;19.10;79.50;;;20.91;65.73;102748.34;2014945;29;20053;-61
2022/07/09 00:27:30;;;;;;;0.20;0.20;;;19.10;79.50;;;20.91;66.03;102755.78;2015545;29;20067;-61
2022/07/09 00:28:32;;;;;;;0.10;0.10;;;19.10;79.50;;;20.91;66.00;102755.78;2014147;29;20057;-61
2022/07/09 00:29:36;;;;;;;0.10;0.10;;;19.10;79.50;;;20.87;65.95;102755.69;2015874;29;20108;-61
2022/07/09 00:30:38;;;;;;;0.10;0.10;;;19.10;79.60;;;20.83;65.90;102752.09;2014763;29;20502;-61
2022/07/09 00:31:42;;;;;;;0.10;0.10;;;19.10;79.60;;;20.85;65.98;102760.78;2014762;29;20397;-61
2022/07/09 00:32:44;;;;;;;0.10;0.10;;;19.10;79.70;;;20.83;66.18;102761.13;2015503;29;20060;-61
2022/07/09 00:33:48;;;;;;;0.10;0.10;;;19.10;79.70;;;20.80;66.19;102756.34;2014898;29;20068;-61
2022/07/09 00:34:50;;;;;;;0.10;0.10;;;19.00;79.80;;;20.79;66.18;102760.28;2014607;29;20061;-61
2022/07/09 00:35:54;;;;;;;0.10;0.10;;;19.10;80.00;;;20.74;66.52;102754.28;2014978;29;20550;-61
2022/07/09 00:36:58;;;;;;;0.20;0.20;;;19.00;80.00;;;20.75;66.36;102756.69;2015359;29;20540;-61
2022/07/09 00:38:02;;;;;;;0.10;0.10;;;19.00;80.20;;;20.74;66.60;102757.81;2015698;29;20053;-61
2022/07/09 00:39:05;;;;;;;0.10;0.10;;;18.90;80.20;;;20.74;66.81;102755.06;2014717;29;20049;-61
2022/07/09 00:40:11;;;;;;;0.10;0.10;;;19.00;80.40;;;20.74;66.80;102757.81;2013783;29;20088;-61
2022/07/09 00:41:13;;;;;;;0.10;0.10;;;19.00;80.50;;;20.72;66.85;102751.88;2014686;29;20085;-61
2022/07/09 00:42:17;;;;;;;0.10;0.10;;;19.00;80.50;;;20.74;66.93;102755.06;2015383;29;20081;-61
2022/07/09 00:43:22;;;;;;;0.10;0.10;;;18.90;80.50;;;20.70;66.71;102753.41;2014628;29;20064;-61
2022/07/09 00:44:26;;;;;;;0.10;0.10;;;18.90;80.60;;;20.72;66.78;102757.38;2014566;29;20049;-61
2022/07/09 00:45:28;;;;;;;0.10;0.10;;;18.90;80.60;;;20.70;67.03;102745.19;2013924;29;20053;-61
2022/07/09 00:46:32;;;;;;;0.10;0.10;;;18.90;80.70;;;20.63;67.05;102742.28;2015544;29;20053;-61
2022/07/09 00:47:34;;;;;;;0.20;0.20;;;18.90;80.70;;;20.70;66.97;102758.91;2014336;29;20057;-61
2022/07/09 00:48:38;;;;;;;0.10;0.10;;;18.90;80.80;;;20.66;66.89;102742.38;2013336;29;20056;-61
2022/07/09 00:49:42;;;;;;;0.17;0.17;;;18.90;80.90;;;20.70;67.05;102753.41;2013296;29;20171;-61
2022/07/09 00:50:46;;;;;;;0.10;0.10;;;18.90;80.90;;;20.71;66.85;102750.31;2014981;29;20104;-60
2022/07/09 00:51:50;;;;;;;0.10;0.10;;;18.90;81.00;;;20.73;66.92;102738.97;2015384;29;20060;-60
2022/07/09 00:52:56;;;;;;;0.10;0.10;;;18.90;81.00;;;20.71;67.01;102750.31;2014311;29;20053;-60
2022/07/09 00:54:00;;;;;;;0.10;0.10;;;18.90;81.00;;;20.72;67.11;102748.38;2015664;29;20064;-60
2022/07/09 00:55:06;;;;;;;0.10;0.10;;;18.80;81.00;;;20.69;67.19;102746.34;2015691;29;20568;-60
2022/07/09 00:56:09;;;;;;;0.10;0.10;;;18.80;81.10;;;20.66;67.33;102749.81;2015242;29;20490;-60
2022/07/09 00:57:13;;;;;;;0.20;0.20;;;18.80;81.20;;;20.62;67.37;102727.00;2004336;29;20167;-60
2022/07/09 00:58:17;;;;;;;0.10;0.10;;;18.80;81.30;;;20.63;67.38;102737.59;2005626;29;20105;-60
2022/07/09 00:59:21;;;;;;;0.10;0.10;;;18.80;81.50;;;20.64;67.44;102730.94;2015054;29;20690;-60
2022/07/09 01:00:24;;;;;;;0.10;0.10;;;18.80;81.60;;;20.64;67.52;102738.41;2015047;29;20132;-60
2022/07/09 01:01:28;;;;;;;0.10;0.10;;;18.80;81.70;;;20.65;67.43;102739.97;2015629;29;20531;-61
2022/07/09 01:02:31;;;;;;;0.10;0.10;;;18.80;81.70;;;20.64;67.60;102743.91;2013539;29;20049;-60
2022/07/09 01:03:34;;;;;;;0.17;0.17;;;18.80;81.70;;;20.61;67.51;102734.41;2014823;29;20049;-60
2022/07/09 01:04:39;;;;;;;0.10;0.10;;;18.80;81.80;;;20.59;67.52;102733.22;2015164;29;20077;-60
2022/07/09 01:05:42;;;;;;;0.10;0.10;;;18.70;81.90;;;20.55;67.71;102729.63;2014770;29;20501;-60
2022/07/09 01:06:45;;;;;;;0.10;0.10;;;18.70;81.90;;;20.53;67.77;102720.94;2015024;29;20595;-60
2022/07/09 01:07:48;;;;;;;0.10;0.10;;;18.70;82.10;;;20.51;67.88;102723.25;2014481;29;20063;-60
2022/07/09 01:08:52;;;;;;;0.10;0.10;;;18.60;82.20;;;20.48;67.92;102723.97;2014212;29;20076;-61
2022/07/09 01:09:57;;;;;;;0.10;0.10;;;18.60;82.40;;;20.45;68.13;102719.22;2015512;29;20489;-60
2022/07/09 01:11:01;;;;;;;0.10;0.10;;;18.60;83.00;;;20.42;68.44;102720.72;2016484;29;20543;-60
2022/07/09 01:12:05;;;;;;;0.10;0.10;;;18.60;82.60;;;20.40;68.49;102720.28;2016332;29;20064;-60
2022/07/09 01:13:08;;;;;;;0.10;0.10;;;18.60;82.70;;;20.40;68.64;102727.72;2015283;29;20539;-60
2022/07/09 01:14:11;;;;;;;0.10;0.10;;;18.60;82.80;;;20.40;68.64;102723.03;2016824;29;20056;-60
2022/07/09 01:15:14;;;;;;;0.10;0.10;;;18.60;82.90;;;20.38;68.61;102719.84;2016810;29;20417;-60
2022/07/09 01:16:17;;;;;;;0.10;0.10;;;18.60;82.90;;;20.36;68.60;102721.38;2015847;29;20064;-60
2022/07/09 01:17:20;;;;;;;0.20;0.20;;;18.60;83.00;;;20.34;68.68;102726.44;2016713;29;20535;-60
2022/07/09 01:18:23;;;;;;;0.10;0.10;;;18.60;83.10;;;20.24;68.98;102710.53;2016468;29;20053;-60
2022/07/09 01:19:26;;;;;;;0.13;0.13;;;18.60;83.10;;;20.32;69.10;102720.50;2016997;29;20052;-61
2022/07/09 01:20:32;;;;;;;0.10;0.10;;;18.50;83.10;;;20.31;69.01;102722.44;2016856;29;20493;-60
2022/07/09 01:21:34;;;;;;;0.10;0.10;;;18.50;83.20;;;20.32;68.97;102720.50;2008249;29;20110;-60
2022/07/09 01:22:38;;;;;;;0.10;0.10;;;18.60;83.20;;;20.33;69.09;102719.34;2012568;29;20060;-60
2022/07/09 01:23:40;;;;;;;0.10;0.10;;;18.50;83.30;;;20.33;69.12;102719.34;2016199;29;20057;-60
2022/07/09 01:24:44;;;;;;;0.20;0.20;;;18.50;83.30;;;20.32;69.06;102712.28;2015583;29;20073;-60
2022/07/09 01:25:47;;;;;;;0.10;0.10;;;18.50;83.40;;;20.32;69.11;102720.50;2016429;29;20088;-60
2022/07/09 01:26:53;;;;;;;0.20;0.20;;;18.50;83.40;;;20.32;69.13;102721.31;2016150;29;20048;-60
2022/07/09 01:27:55;;;;;;;0.10;0.10;;;18.50;83.50;;;20.32;69.04;102720.50;2016126;29;20091;-60
2022/07/09 01:28:59;;;;;;;0.17;0.17;;;18.60;83.50;;;20.30;69.34;102720.88;2016642;29;20072;-60
2022/07/09 01:30:02;;;;;;;0.10;0.10;;;18.50;83.50;;;20.29;69.33;102715.75;2015955;29;20528;-60
2022/07/09 01:31:05;;;;;;;0.20;0.20;;;18.60;83.60;;;20.27;69.57;102713.34;2016729;29;20060;-60
2022/07/09 01:32:08;;;;;;;0.13;0.13;;;18.60;83.50;;;20.27;69.39;102712.56;2016202;29;20436;-60
2022/07/09 01:33:12;;;;;;;0.17;0.17;;;18.60;83.50;;;20.26;69.50;102714.53;2015329;29;20179;-60
2022/07/09 01:34:15;;;;;;;0.20;0.20;;;18.60;83.50;;;20.24;69.66;102700.38;2015638;29;20507;-60
2022/07/09 01:35:18;;;;;;;0.10;0.10;;;18.60;83.50;;;20.24;69.62;102707.78;2015877;29;20409;-60
2022/07/09 01:36:22;;;;;;;0.20;0.20;;;18.60;83.60;;;20.23;69.69;102711.69;2016520;29;20599;-60
2022/07/09 01:37:26;;;;;;;0.10;0.10;;;18.60;83.60;;;20.22;69.56;102715.59;2015245;29;20045;-60
2022/07/09 01:38:28;;;;;;;0.10;0.10;;;18.50;83.60;;;20.21;69.64;102714.00;2015798;29;20501;-60
2022/07/09 01:39:32;;;;;;;0.13;0.13;;;18.50;83.60;;;20.18;69.70;102710.03;2016596;29;20063;-60
2022/07/09 01:40:35;;;;;;;0.00;0.00;;;18.50;83.70;;;20.18;69.80;102709.25;2015414;29;20053;-60
2022/07/09 01:41:38;;;;;;;0.20;0.20;;;18.50;83.70;;;20.18;69.67;102711.97;2016092;29;20077;-60
2022/07/09 01:42:41;;;;;;;0.10;0.10;;;18.40;83.90;;;20.16;69.77;102706.06;2016552;29;20061;-60
2022/07/09 01:43:44;;;;;;;0.10;0.10;;;18.40;83.90;;;20.16;69.94;102697.81;2016206;29;20416;-60
2022/07/09 01:44:48;;;;;;;0.10;0.10;;;18.40;83.90;;;20.15;69.69;102701.72;2016465;29;20087;-60
2022/07/09 01:45:51;;;;;;;0.10;0.10;;;18.40;84.10;;;20.12;70.06;102703.19;2015846;29;20056;-60
2022/07/09 01:46:54;;;;;;;0.10;0.10;;;18.40;84.20;;;20.10;70.13;102702.78;2015558;29;20057;-60
2022/07/09 01:47:57;;;;;;;0.10;0.10;;;18.40;84.10;;;20.09;70.06;102697.66;2016622;29;20072;-60
2022/07/09 01:49:00;;;;;;;0.10;0.10;;;18.40;84.20;;;20.09;70.16;102700.41;2015877;29;20473;-60
2022/07/09 01:50:04;;;;;;;0.10;0.10;;;18.40;84.10;;;20.07;70.27;102695.28;2016314;29;20140;-60
2022/07/09 01:51:07;;;;;;;0.10;0.10;;;18.40;84.20;;;20.08;70.25;102693.31;2016616;29;20429;-60
2022/07/09 01:52:11;;;;;;;0.10;0.10;;;18.40;84.30;;;20.07;70.03;102694.47;2015616;29;20087;-61
2022/07/09 01:53:14;;;;;;;0.10;0.10;;;18.40;84.20;;;20.08;70.03;102682.34;2016151;29;20523;-60
2022/07/09 01:54:18;;;;;;;0.10;0.10;;;18.40;84.80;;;20.07;70.15;102676.09;2015499;29;20509;-60
2022/07/09 01:55:21;;;;;;;0.10;0.10;;;18.40;84.20;;;20.08;70.04;102677.66;2016045;29;20057;-60
2022/07/09 01:56:24;;;;;;;0.10;0.10;;;18.40;84.30;;;20.07;69.98;102678.03;2016540;29;20052;-60
2022/07/09 01:57:27;;;;;;;0.15;0.15;;;18.40;84.20;;;20.10;70.05;102680.03;2015113;29;20057;-60
2022/07/09 01:58:30;;;;;;;0.10;0.10;;;18.40;84.20;;;20.11;70.10;102681.63;2015730;29;20060;-60
2022/07/09 01:59:33;;;;;;;0.10;0.10;;;18.40;84.20;;;20.12;69.96;102677.75;2014386;29;20604;-61
2022/07/09 02:00:36;;;;;;;0.10;0.10;;;18.40;84.20;;;20.11;69.97;102682.44;2016577;29;20095;-60
2022/07/09 02:01:39;;;;;;;0.10;0.10;;;18.40;84.20;;;20.12;69.96;102683.22;2016612;29;20056;-60
2022/07/09 02:02:42;;;;;;;0.10;0.10;;;18.40;84.20;;;20.13;69.86;102687.56;2015810;29;20052;-60
2022/07/09 02:03:45;;;;;;;0.10;0.10;;;18.40;84.20;;;20.13;69.85;102679.31;2015209;29;20421;-60
2022/07/09 02:04:48;;;;;;;0.10;0.10;;;18.40;84.10;;;20.14;69.79;102675.44;2016560;29;20060;-60
2022/07/09 02:05:51;;;;;;;0.20;0.20;;;18.40;84.10;;;20.15;69.69;102682.53;2009109;29;20531;-61
2022/07/09 02:06:56;;;;;;;0.20;0.20;;;18.40;84.00;;;20.14;69.78;102680.94;2009422;29;20164;-60
2022/07/09 02:07:59;;;;;;;0.10;0.10;;;18.40;83.90;;;20.13;69.68;102674.63;2016627;29;20068;-60
2022/07/09 02:09:03;;;;;;;0.10;0.10;;;18.50;83.90;;;20.14;69.58;102675.44;2016189;29;20056;-60
2022/07/09 02:10:07;;;;;;;0.10;0.10;;;18.50;83.80;;;20.11;69.49;102681.63;2014840;29;20060;-60
2022/07/09 02:11:11;;;;;;;0.10;0.10;;;18.40;83.60;;;20.09;69.67;102672.97;2016204;29;20060;-61
2022/07/09 02:12:13;;;;;;;0.10;0.10;;;18.40;83.60;;;20.08;69.81;102677.66;2014494;29;20523;-61
2022/07/09 02:13:19;;;;;;;0.10;0.10;;;18.40;83.60;;;20.04;69.84;102673.25;2016016;29;20057;-60
2022/07/09 02:14:21;;;;;;;0.20;0.20;;;18.40;83.50;;;20.04;69.70;102678.75;2015948;29;20085;-60
2022/07/09 02:15:25;;;;;;;0.10;0.10;;;18.40;83.60;;;20.05;69.71;102677.59;2015618;29;20057;-61
2022/07/09 02:16:27;;;;;;;0.10;0.10;;;18.40;83.50;;;20.03;69.71;102675.19;2015758;29;20061;-60
2022/07/09 02:17:32;;;;;;;0.10;0.10;;;18.40;83.40;;;20.02;69.54;102678.31;2015801;29;20518;-60
2022/07/09 02:18:35;;;;;;;0.10;0.10;;;18.40;83.40;;;20.02;69.95;102672.81;2016176;29;20060;-60
2022/07/09 02:19:39;;;;;;;0.10;0.10;;;18.40;83.40;;;20.02;69.55;102678.31;2015069;29;20068;-60
2022/07/09 02:20:42;;;;;;;0.13;0.13;;;18.40;83.40;;;20.02;69.62;102667.34;2016257;29;20056;-60
2022/07/09 02:21:45;;;;;;;0.10;0.10;;;18.40;83.30;;;20.01;69.56;102672.03;2014381;29;20513;-60
2022/07/09 02:22:48;;;;;;;0.10;0.10;;;18.40;83.30;;;20.02;69.53;102678.31;2015649;29;20274;-60
2022/07/09 02:23:58;;;;;;;0.10;0.10;;;18.40;83.30;;;20.01;69.56;102668.50;2016269;29;20057;-60
2022/07/09 02:25:00;;;;;;;;;;;18.40;83.30;;;20.02;69.45;102670.88;2008352;29;20617;-60
2022/07/09 02:26:04;;;;;;;0.17;0.17;;;18.30;83.40;;;20.01;69.17;102674.00;2007576;29;19928;-60
2022/07/09 02:27:07;;;;;;;0.10;0.10;;;18.30;83.20;;;19.98;69.19;102667.25;2016052;29;20057;-60
2022/07/09 02:28:10;;;;;;;0.10;0.10;;;18.30;83.10;;;19.97;69.46;102660.19;2015310;29;20065;-62
2022/07/09 02:29:12;;;;;;;0.10;0.10;;;18.30;83.20;;;19.97;69.48;102665.69;2016217;29;20103;-60
2022/07/09 02:30:16;;;;;;;0.17;0.17;;;18.30;83.10;;;19.98;69.44;102666.47;2014054;29;20056;-60
2022/07/09 02:31:18;;;;;;;0.00;0.00;;;18.40;83.10;;;19.98;69.47;102661.00;2016183;29;20060;-60
2022/07/09 02:32:22;;;;;;;0.10;0.10;;;18.40;83.00;;;19.98;69.41;102669.22;2016144;29;20536;-60
2022/07/09 02:33:24;;;;;;;0.20;0.20;;;18.40;83.00;;;19.96;69.44;102668.78;2015357;29;20056;-60
2022/07/09 02:34:34;;;;;;;0.10;0.10;;;18.40;83.00;;;19.88;69.64;102654.13;2015663;29;20116;-60
2022/07/09 02:35:36;;;;;;;0.17;0.17;;;18.40;82.90;;;19.94;69.44;102665.59;2015356;29;20049;-60
2022/07/09 02:36:39;;;;;;;0.10;0.10;;;18.40;82.90;;;19.99;69.56;102663.38;2015855;29;20057;-60
2022/07/09 02:37:42;;;;;;;0.10;0.10;;;18.40;82.90;;;20.01;69.37;102668.50;2016352;29;20085;-60
2022/07/09 02:38:45;;;;;;;0.17;0.17;;;18.40;82.90;;;20.01;69.28;102663.78;2015035;29;20049;-60
2022/07/09 02:39:49;;;;;;;0.20;0.20;;;18.40;82.80;;;20.01;69.45;102665.75;2015870;29;20052;-60
2022/07/09 02:40:53;;;;;;;0.10;0.10;;;18.40;82.80;;;20.00;69.33;102661.41;2014826;29;20053;-60
2022/07/09 02:41:55;;;;;;;0.10;0.10;;;18.40;82.90;;;20.03;69.31;102660.69;2015210;29;20131;-60
2022/07/09 02:42:58;;;;;;;0.10;0.10;;;18.40;82.90;;;20.04;69.09;102646.63;2016303;29;20409;-60
2022/07/09 02:44:01;;;;;;;0.15;0.15;;;18.40;83.00;;;20.02;69.15;102648.16;2015297;29;20509;-60
2022/07/09 02:45:05;;;;;;;0.10;0.10;;;18.40;83.10;;;20.03;69.40;102656.00;2015830;29;20390;-61
2022/07/09 02:46:07;;;;;;;0.10;0.10;;;18.30;83.10;;;20.03;69.29;102652.47;2015951;29;20060;-60
2022/07/09 02:47:11;;;;;;;0.10;0.10;;;18.30;83.10;;;20.02;69.33;102651.69;2015325;29;20061;-60
2022/07/09 02:48:14;;;;;;;0.10;0.10;;;18.30;83.10;;;20.03;69.32;102652.47;2016170;29;20064;-60
2022/07/09 02:49:17;;;;;;;0.10;0.10;;;18.30;83.20;;;20.02;69.41;102653.63;2014794;29;20494;-60
2022/07/09 02:50:20;;;;;;;0.10;0.10;;;18.40;83.20;;;20.00;69.43;102643.03;2015795;29;20402;-60
2022/07/09 02:51:23;;;;;;;0.10;0.10;;;18.40;83.20;;;19.96;69.41;102620.22;2016080;29;20057;-60
2022/07/09 02:52:25;;;;;;;0.20;0.20;;;18.40;83.10;;;20.02;69.48;102629.75;2015319;29;20401;-61
2022/07/09 02:53:29;;;;;;;0.10;0.10;;;18.40;83.10;;;20.04;69.30;102632.13;2016113;29;20163;-60
2022/07/09 02:54:32;;;;;;;0.10;0.10;;;18.40;83.10;;;20.04;69.18;102632.91;2016219;29;20091;-60
2022/07/09 02:55:36;;;;;;;0.10;0.10;;;18.40;83.00;;;20.05;69.17;102645.47;2015483;29;20393;-60
2022/07/09 02:56:39;;;;;;;0.20;0.20;;;18.40;83.00;;;20.05;69.20;102633.72;2016054;29;20084;-60
2022/07/09 02:57:42;;;;;;;0.10;0.10;;;18.40;82.90;;;20.05;69.19;102644.69;2016002;29;20653;-61
2022/07/09 02:58:44;;;;;;;0.15;0.15;;;18.40;82.90;;;20.06;69.33;102651.78;2013438;29;20064;-61
2022/07/09 02:59:48;;;;;;;0.10;0.10;;;18.40;83.00;;;20.04;69.25;102651.31;2016154;29;20126;-60
2022/07/09 03:00:50;;;;;;;0.13;0.13;;;18.40;83.00;;;20.04;69.17;102641.13;2015499;29;20053;-60
2022/07/09 03:01:54;;;;;;;0.20;0.20;;;18.40;83.00;;;20.02;69.26;102639.91;2015924;29;20508;-60
2022/07/09 03:02:58;;;;;;;0.10;0.10;;;18.40;83.00;;;20.01;69.23;102641.09;2021344;29;20053;-61
2022/07/09 03:04:06;;;;;;;0.20;0.20;;;18.40;83.00;;;19.98;69.50;102645.31;2011728;29;21217;-60
2022/07/09 03:05:11;;;;;;;0.10;0.10;;;18.40;83.00;;;19.97;69.38;102654.72;2008465;29;20046;-60
2022/07/09 03:06:15;;;;;;;0.10;0.10;;;18.40;83.00;;;19.86;69.43;102633.69;2014346;29;20501;-61
2022/07/09 03:07:18;;;;;;;0.10;0.10;;;18.30;82.90;;;19.92;69.42;102645.97;2014782;29;20057;-60
2022/07/09 03:08:22;;;;;;;0.10;0.10;;;18.30;83.10;;;19.87;69.65;102643.53;2016070;29;20053;-60
2022/07/09 03:09:25;;;;;;;0.10;0.10;;;18.30;83.10;;;19.88;69.57;102645.09;2014787;29;20155;-60
2022/07/09 03:10:29;;;;;;;0.13;0.13;;;18.30;83.20;;;19.84;69.79;102638.75;2016024;29;20516;-60
2022/07/09 03:11:33;;;;;;;0.10;0.10;;;18.30;83.20;;;19.82;69.75;102641.84;2015210;29;20640;-60
2022/07/09 03:12:36;;;;;;;0.20;0.20;;;18.20;83.20;;;19.82;69.92;102644.59;2007081;29;20065;-60
2022/07/09 03:13:39;;;;;;;0.10;0.10;;;18.30;83.30;;;19.82;69.91;102649.28;2016085;29;20061;-61
2022/07/09 03:14:42;;;;;;;0.20;0.20;;;18.30;83.40;;;19.81;70.00;102643.00;2015500;29;20060;-60
2022/07/09 03:15:45;;;;;;;0.20;0.20;;;18.20;83.40;;;19.82;69.94;102644.59;2013865;29;20129;-63
2022/07/09 03:16:48;;;;;;;0.20;0.20;;;18.20;83.50;;;19.83;70.14;102639.91;2015509;29;20513;-60
2022/07/09 03:17:51;;;;;;;0.20;0.20;;;18.20;83.60;;;19.82;70.03;102635.59;2021706;29;20056;-60
2022/07/09 03:18:54;;;;;;;0.20;0.20;;;18.20;83.70;;;19.85;70.16;102640.34;2022246;29;20064;-60
2022/07/09 03:19:56;;;;;;;0.20;0.20;;;18.20;83.70;;;19.86;69.89;102636.44;2014891;29;20060;-61
2022/07/09 03:21:00;;;;;;;0.20;0.20;;;18.20;83.80;;;19.86;69.83;102636.44;2015929;29;20064;-60
2022/07/09 03:22:04;;;;;;;0.10;0.10;;;18.20;83.90;;;19.86;70.00;102630.97;2014849;29;20053;-60
2022/07/09 03:23:07;;;;;;;0.20;0.20;;;18.10;84.00;;;19.85;69.99;102635.63;2015814;29;20053;-60
2022/07/09 03:24:10;;;;;;;0.20;0.20;;;18.10;84.10;;;19.84;69.92;102627.78;2015826;29;20828;-62
2022/07/09 03:25:13;;;;;;;0.13;0.13;;;18.00;84.10;;;19.81;70.16;102628.50;2006513;29;20529;-61
2022/07/09 03:26:16;;;;;;;0.20;0.20;;;18.10;84.30;;;19.79;70.21;102626.13;2006268;29;20088;-61
2022/07/09 03:27:20;;;;;;;0.10;0.10;;;18.00;84.30;;;19.76;70.21;102621.34;1998609;29;20502;-60
2022/07/09 03:28:23;;;;;;;0.20;0.20;;;18.00;84.50;;;19.74;70.24;102620.16;1998716;29;20057;-60
2022/07/09 03:29:26;;;;;;;0.10;0.10;;;18.00;84.50;;;19.74;70.31;102622.88;2006361;29;20555;-62
2022/07/09 03:30:28;;;;;;;0.20;0.20;;;18.00;84.70;;;19.71;70.34;102621.63;2007120;29;20056;-63
2022/07/09 03:31:32;;;;;;;0.20;0.20;;;18.00;84.70;;;19.71;70.48;102618.91;2014652;29;20425;-60
2022/07/09 03:32:34;;;;;;;0.20;0.20;;;17.90;84.70;;;19.69;70.58;102620.41;2007559;29;20655;-60
2022/07/09 03:33:38;;;;;;;0.20;0.20;;;18.00;84.80;;;19.66;70.56;102627.44;2005747;29;20102;-60
2022/07/09 03:34:40;;;;;;;0.20;0.20;;;18.00;84.80;;;19.65;70.54;102623.06;2014654;29;20124;-61
2022/07/09 03:35:44;;;;;;;0.20;0.20;;;17.90;84.80;;;19.64;70.68;102628.91;2015892;29;20067;-61
2022/07/09 03:36:47;;;;;;;0.17;0.17;;;18.00;84.90;;;19.58;70.61;102619.41;2015132;29;20493;-60
2022/07/09 03:37:50;;;;;;;0.20;0.20;;;17.90;84.80;;;19.63;70.82;102627.34;2015846;29;20061;-60
2022/07/09 03:38:53;;;;;;;0.10;0.10;;;18.00;84.80;;;19.61;70.64;102624.97;2014510;29;20094;-60
2022/07/09 03:39:56;;;;;;;0.20;0.20;;;18.00;84.80;;;19.61;70.90;102629.63;2014962;29;20069;-61
2022/07/09 03:40:59;;;;;;;0.20;0.20;;;18.00;84.80;;;19.62;70.93;102621.06;2014927;29;20516;-62
2022/07/09 03:42:06;;;;;;;0.10;0.10;;;18.00;84.80;;;19.61;70.94;102629.63;2015446;29;20445;-60
2022/07/09 03:43:10;;;;;;;0.20;0.20;;;18.00;84.90;;;19.64;70.97;102623.44;2007027;29;20045;-60
2022/07/09 03:44:13;;;;;;;0.15;0.15;;;18.00;84.90;;;19.64;70.75;102632.47;2007081;29;20046;-60
2022/07/09 03:45:16;;;;;;;0.10;0.10;;;18.00;84.80;;;19.65;70.83;102623.06;2013812;29;20425;-60
2022/07/09 03:46:19;;;;;;;0.20;0.20;;;18.00;84.90;;;19.65;70.72;102622.28;2015850;29;20085;-60
2022/07/09 03:47:21;;;;;;;0.20;0.20;;;18.00;84.90;;;19.65;70.88;102623.06;2016736;29;20053;-60
2022/07/09 03:48:25;;;;;;;0.20;0.20;;;18.00;84.90;;;19.57;70.83;102601.38;2016091;29;20174;-60
2022/07/09 03:49:27;;;;;;;0.10;0.10;;;18.00;85.00;;;19.67;70.71;102614.50;2015644;29;20092;-63
2022/07/09 03:50:31;;;;;;;0.10;0.10;;;18.00;85.00;;;19.66;70.80;102613.72;2014444;29;20089;-60
2022/07/09 03:51:33;;;;;;;0.20;0.20;;;17.90;85.00;;;19.65;70.66;102614.06;2015967;29;20052;-60
2022/07/09 03:52:37;;;;;;;0.20;0.20;;;17.90;85.00;;;19.61;70.87;102618.69;1997071;29;20061;-62
2022/07/09 03:53:39;;;;;;;0.20;0.20;;;17.90;85.00;;;19.60;70.75;102611.63;2001286;29;20114;-60
2022/07/09 03:54:43;;;;;;;0.20;0.20;;;17.80;85.10;;;19.59;70.72;102612.75;2015657;29;20228;-60
2022/07/09 03:55:45;;;;;;;0.10;0.10;;;17.80;85.10;;;19.57;70.88;102615.84;2014711;29;20512;-60
2022/07/09 03:56:49;;;;;;;0.10;0.10;;;17.80;85.20;;;19.48;70.89;102603.50;2015551;29;20493;-60
2022/07/09 03:57:51;;;;;;;0.20;0.20;;;17.90;85.30;;;19.54;70.99;102607.56;2021642;29;20060;-60
2022/07/09 03:58:57;;;;;;;0.10;0.10;;;17.80;85.30;;;19.57;70.98;102617.81;2020689;29;20505;-60
2022/07/09 04:00:00;;;;;;;0.20;0.20;;;17.80;85.30;;;19.53;70.71;102604.03;2015608;29;20064;-62
2022/07/09 04:01:03;;;;;;;0.20;0.20;;;17.80;85.30;;;19.47;71.00;102593.72;2015090;29;20053;-61
2022/07/09 04:02:07;;;;;;;0.20;0.20;;;17.80;85.30;;;19.57;70.88;102604.13;2014324;29;20136;-60
2022/07/09 04:03:15;;;;;;;0.20;0.20;;;17.80;85.20;;;19.54;70.93;102605.63;2022016;29;20129;-62
2022/07/09 04:04:18;;;;;;;0.20;0.20;;;17.80;85.20;;;19.54;70.78;102605.63;2020037;29;20149;-60
2022/07/09 04:05:21;;;;;;;0.20;0.20;;;17.90;85.20;;;19.53;70.93;102606.78;2014382;29;20161;-60
2022/07/09 04:06:24;;;;;;;0.20;0.20;;;17.80;85.20;;;19.52;70.91;102613.38;2015305;29;20539;-60
2022/07/09 04:07:27;;;;;;;0.20;0.20;;;17.80;85.20;;;19.50;71.01;102606.69;2006601;29;20057;-60
2022/07/09 04:08:29;;;;;;;0.20;0.20;;;17.80;85.20;;;19.50;71.07;102617.66;2007532;29;20095;-60
2022/07/09 04:09:33;;;;;;;0.20;0.20;;;17.80;85.20;;;19.50;71.09;102618.44;2013115;29;20064;-60
2022/07/09 04:10:36;;;;;;;0.20;0.20;;;17.80;85.20;;;19.52;71.14;102615.34;2014637;29;20084;-60
2022/07/09 04:11:39;;;;;;;0.10;0.10;;;17.80;85.30;;;19.52;71.13;102620.84;2014726;29;20045;-60
2022/07/09 04:12:41;;;;;;;0.20;0.20;;;17.80;85.30;;;19.54;70.97;102621.25;2015000;29;20236;-60
2022/07/09 04:13:45;;;;;;;0.20;0.20;;;17.80;85.30;;;19.54;70.90;102619.31;2018540;29;20080;-62
2022/07/09 04:14:49;;;;;;;0.10;0.10;;;17.90;85.30;;;19.54;71.01;102613.84;2017635;29;20495;-60
2022/07/09 04:15:52;;;;;;;0.10;0.10;;;17.90;85.30;;;19.55;70.99;102620.13;2006079;29;20553;-61
2022/07/09 04:16:55;;;;;;;0.10;0.10;;;17.90;85.30;;;19.48;71.16;102603.50;2007437;29;20060;-60
2022/07/09 04:17:58;;;;;;;0.20;0.20;;;17.90;85.20;;;19.54;70.98;102622.06;2014882;29;20061;-62
2022/07/09 04:19:00;;;;;;;0.20;0.20;;;17.90;85.20;;;19.55;71.10;102620.13;2015832;29;20061;-61
2022/07/09 04:20:05;;;;;;;0.20;0.20;;;17.90;85.20;;;19.54;70.91;102619.31;2014571;29;20084;-60
2022/07/09 04:21:08;;;;;;;0.10;0.10;;;17.90;85.20;;;19.56;70.94;102621.69;2014984;29;20057;-60
2022/07/09 04:22:11;;;;;;;0.10;0.10;;;17.90;85.20;;;19.55;70.97;102609.94;2015497;29;20056;-60
2022/07/09 04:23:13;;;;;;;0.15;0.15;;;17.80;85.20;;;19.56;70.92;102632.66;2014815;29;20513;-60
2022/07/09 04:24:17;;;;;;;0.20;0.20;;;17.80;85.20;;;19.58;70.87;102622.13;2015353;29;20085;-61